sensor_id;sensor_type;location;lat;lon;timestamp;P1;durP1;ratioP1;P2;durP2;ratioP2
34497;SDS011;20744;50.938;7.286;2024-03-02T00:00:50;2.63;;;1.27;;
34497;SDS011;20744;50.938;7.286;2024-03-02T00:03:18;2.10;;;1.15;;
34497;SDS011;20744;50.938;7.286;2024-03-02T00:05:50;2.10;;;1.15;;
34497;SDS011;20744;50.938;7.286;2024-03-02T00:08:22;3.70;;;1.30;;
34497;SDS011;20744;50.938;7.286;2024-03-02T00:10:51;1.42;;;0.90;;
34497;SDS011;20744;50.938;7.286;2024-03-02T00:13:20;3.25;;;1.35;;
34497;SDS011;20744;50.938;7.286;2024-03-02T00:15:51;2.15;;;1.35;;
34497;SDS011;20744;50.938;7.286;2024-03-02T00:18:19;2.83;;;1.20;;
34497;SDS011;20744;50.938;7.286;2024-03-02T00:20:47;1.60;;;1.20;;
34497;SDS011;20744;50.938;7.286;2024-03-02T00:23:16;3.42;;;1.38;;
34497;SDS011;20744;50.938;7.286;2024-03-02T00:25:46;3.70;;;1.50;;
34497;SDS011;20744;50.938;7.286;2024-03-02T00:28:14;3.13;;;1.35;;
34497;SDS011;20744;50.938;7.286;2024-03-02T00:30:49;2.47;;;1.45;;
34497;SDS011;20744;50.938;7.286;2024-03-02T00:33:18;2.97;;;1.67;;
34497;SDS011;20744;50.938;7.286;2024-03-02T00:35:46;2.72;;;1.30;;
34497;SDS011;20744;50.938;7.286;2024-03-02T00:38:13;5.05;;;1.70;;
34497;SDS011;20744;50.938;7.286;2024-03-02T00:40:42;3.78;;;1.45;;
34497;SDS011;20744;50.938;7.286;2024-03-02T00:43:11;1.73;;;1.10;;
34497;SDS011;20744;50.938;7.286;2024-03-02T00:45:46;2.75;;;1.60;;
34497;SDS011;20744;50.938;7.286;2024-03-02T00:48:14;2.88;;;1.63;;
34497;SDS011;20744;50.938;7.286;2024-03-02T00:50:42;2.90;;;1.40;;
34497;SDS011;20744;50.938;7.286;2024-03-02T00:53:09;2.33;;;1.42;;
34497;SDS011;20744;50.938;7.286;2024-03-02T00:55:38;2.10;;;1.48;;
34497;SDS011;20744;50.938;7.286;2024-03-02T00:58:10;2.20;;;1.35;;
34497;SDS011;20744;50.938;7.286;2024-03-02T01:00:39;3.30;;;1.45;;
34497;SDS011;20744;50.938;7.286;2024-03-02T01:03:06;1.80;;;1.25;;
34497;SDS011;20744;50.938;7.286;2024-03-02T01:05:35;4.30;;;1.35;;
34497;SDS011;20744;50.938;7.286;2024-03-02T01:08:03;3.17;;;1.30;;
34497;SDS011;20744;50.938;7.286;2024-03-02T01:10:30;4.40;;;1.52;;
34497;SDS011;20744;50.938;7.286;2024-03-02T01:12:57;2.20;;;1.25;;
34497;SDS011;20744;50.938;7.286;2024-03-02T01:15:26;3.13;;;1.80;;
34497;SDS011;20744;50.938;7.286;2024-03-02T01:17:53;5.43;;;1.45;;
34497;SDS011;20744;50.938;7.286;2024-03-02T01:20:23;2.70;;;1.73;;
34497;SDS011;20744;50.938;7.286;2024-03-02T01:22:51;3.70;;;1.50;;
34497;SDS011;20744;50.938;7.286;2024-03-02T01:25:18;3.88;;;1.60;;
34497;SDS011;20744;50.938;7.286;2024-03-02T01:27:48;2.42;;;1.40;;
34497;SDS011;20744;50.938;7.286;2024-03-02T01:30:15;2.83;;;1.48;;
34497;SDS011;20744;50.938;7.286;2024-03-02T01:32:47;2.42;;;1.20;;
34497;SDS011;20744;50.938;7.286;2024-03-02T01:35:15;2.65;;;1.52;;
34497;SDS011;20744;50.938;7.286;2024-03-02T01:37:45;4.00;;;1.50;;
34497;SDS011;20744;50.938;7.286;2024-03-02T01:40:12;3.17;;;1.40;;
34497;SDS011;20744;50.938;7.286;2024-03-02T01:42:40;2.25;;;1.33;;
34497;SDS011;20744;50.938;7.286;2024-03-02T01:45:10;2.75;;;1.42;;
34497;SDS011;20744;50.938;7.286;2024-03-02T01:47:37;2.42;;;1.27;;
34497;SDS011;20744;50.938;7.286;2024-03-02T01:50:06;3.05;;;1.27;;
34497;SDS011;20744;50.938;7.286;2024-03-02T01:52:36;4.93;;;1.40;;
34497;SDS011;20744;50.938;7.286;2024-03-02T01:55:04;3.28;;;1.48;;
34497;SDS011;20744;50.938;7.286;2024-03-02T01:57:32;3.83;;;1.60;;
34497;SDS011;20744;50.938;7.286;2024-03-02T02:00:00;3.78;;;1.13;;
34497;SDS011;20744;50.938;7.286;2024-03-02T02:02:28;3.42;;;1.80;;
34497;SDS011;20744;50.938;7.286;2024-03-02T02:04:55;2.05;;;1.25;;
34497;SDS011;20744;50.938;7.286;2024-03-02T02:07:24;2.72;;;1.50;;
34497;SDS011;20744;50.938;7.286;2024-03-02T02:09:51;2.50;;;1.30;;
34497;SDS011;20744;50.938;7.286;2024-03-02T02:12:18;4.10;;;1.30;;
34497;SDS011;20744;50.938;7.286;2024-03-02T02:14:49;2.25;;;1.38;;
34497;SDS011;20744;50.938;7.286;2024-03-02T02:17:16;3.08;;;1.20;;
34497;SDS011;20744;50.938;7.286;2024-03-02T02:19:44;2.38;;;1.42;;
34497;SDS011;20744;50.938;7.286;2024-03-02T02:22:12;2.28;;;1.20;;
34497;SDS011;20744;50.938;7.286;2024-03-02T02:24:42;4.60;;;1.50;;
34497;SDS011;20744;50.938;7.286;2024-03-02T02:27:09;2.40;;;1.25;;
34497;SDS011;20744;50.938;7.286;2024-03-02T02:29:37;2.28;;;1.33;;
34497;SDS011;20744;50.938;7.286;2024-03-02T02:32:05;1.88;;;1.25;;
34497;SDS011;20744;50.938;7.286;2024-03-02T02:34:32;2.67;;;1.50;;
34497;SDS011;20744;50.938;7.286;2024-03-02T02:36:59;2.92;;;1.42;;
34497;SDS011;20744;50.938;7.286;2024-03-02T02:39:28;2.08;;;1.35;;
34497;SDS011;20744;50.938;7.286;2024-03-02T02:41:55;2.65;;;1.38;;
34497;SDS011;20744;50.938;7.286;2024-03-02T02:44:26;3.63;;;1.30;;
34497;SDS011;20744;50.938;7.286;2024-03-02T02:46:53;6.80;;;1.77;;
34497;SDS011;20744;50.938;7.286;2024-03-02T02:49:20;4.88;;;1.38;;
34497;SDS011;20744;50.938;7.286;2024-03-02T02:51:48;2.75;;;1.40;;
34497;SDS011;20744;50.938;7.286;2024-03-02T02:54:15;4.15;;;1.48;;
34497;SDS011;20744;50.938;7.286;2024-03-02T02:56:44;2.20;;;0.95;;
34497;SDS011;20744;50.938;7.286;2024-03-02T02:59:11;4.40;;;1.45;;
34497;SDS011;20744;50.938;7.286;2024-03-02T03:01:38;2.90;;;1.55;;
34497;SDS011;20744;50.938;7.286;2024-03-02T03:04:05;2.97;;;1.27;;
34497;SDS011;20744;50.938;7.286;2024-03-02T03:06:33;1.38;;;0.80;;
34497;SDS011;20744;50.938;7.286;2024-03-02T03:09:00;4.13;;;1.27;;
34497;SDS011;20744;50.938;7.286;2024-03-02T03:11:27;2.10;;;1.20;;
34497;SDS011;20744;50.938;7.286;2024-03-02T03:13:56;2.80;;;1.42;;
34497;SDS011;20744;50.938;7.286;2024-03-02T03:16:25;3.05;;;1.40;;
34497;SDS011;20744;50.938;7.286;2024-03-02T03:18:52;2.00;;;1.30;;
34497;SDS011;20744;50.938;7.286;2024-03-02T03:21:19;2.78;;;1.30;;
34497;SDS011;20744;50.938;7.286;2024-03-02T03:23:47;4.47;;;1.40;;
34497;SDS011;20744;50.938;7.286;2024-03-02T03:26:14;3.42;;;1.27;;
34497;SDS011;20744;50.938;7.286;2024-03-02T03:28:41;3.42;;;1.20;;
34497;SDS011;20744;50.938;7.286;2024-03-02T03:31:10;2.53;;;1.30;;
34497;SDS011;20744;50.938;7.286;2024-03-02T03:33:37;2.47;;;1.20;;
34497;SDS011;20744;50.938;7.286;2024-03-02T03:36:05;2.30;;;1.15;;
34497;SDS011;20744;50.938;7.286;2024-03-02T03:38:32;2.65;;;1.45;;
34497;SDS011;20744;50.938;7.286;2024-03-02T03:40:59;2.38;;;1.38;;
34497;SDS011;20744;50.938;7.286;2024-03-02T03:43:26;2.40;;;1.48;;
34497;SDS011;20744;50.938;7.286;2024-03-02T03:45:54;2.50;;;1.15;;
34497;SDS011;20744;50.938;7.286;2024-03-02T03:48:23;2.25;;;1.25;;
34497;SDS011;20744;50.938;7.286;2024-03-02T03:50:55;4.97;;;1.42;;
34497;SDS011;20744;50.938;7.286;2024-03-02T03:53:22;3.45;;;1.38;;
34497;SDS011;20744;50.938;7.286;2024-03-02T03:55:50;2.35;;;1.50;;
34497;SDS011;20744;50.938;7.286;2024-03-02T03:58:18;2.28;;;1.50;;
34497;SDS011;20744;50.938;7.286;2024-03-02T04:00:46;3.78;;;1.45;;
34497;SDS011;20744;50.938;7.286;2024-03-02T04:03:13;3.38;;;1.60;;
34497;SDS011;20744;50.938;7.286;2024-03-02T04:05:42;4.25;;;1.85;;
34497;SDS011;20744;50.938;7.286;2024-03-02T04:08:09;3.33;;;1.60;;
34497;SDS011;20744;50.938;7.286;2024-03-02T04:10:37;4.57;;;2.17;;
34497;SDS011;20744;50.938;7.286;2024-03-02T04:13:05;3.80;;;2.25;;
34497;SDS011;20744;50.938;7.286;2024-03-02T04:15:32;3.13;;;1.55;;
34497;SDS011;20744;50.938;7.286;2024-03-02T04:18:00;3.13;;;2.00;;
34497;SDS011;20744;50.938;7.286;2024-03-02T04:20:27;3.47;;;2.00;;
34497;SDS011;20744;50.938;7.286;2024-03-02T04:22:56;4.15;;;2.17;;
34497;SDS011;20744;50.938;7.286;2024-03-02T04:25:23;4.00;;;2.10;;
34497;SDS011;20744;50.938;7.286;2024-03-02T04:27:50;7.05;;;2.28;;
34497;SDS011;20744;50.938;7.286;2024-03-02T04:30:17;4.00;;;2.28;;
34497;SDS011;20744;50.938;7.286;2024-03-02T04:32:45;3.83;;;2.20;;
34497;SDS011;20744;50.938;7.286;2024-03-02T04:35:14;4.70;;;2.35;;
34497;SDS011;20744;50.938;7.286;2024-03-02T04:37:41;3.65;;;2.20;;
34497;SDS011;20744;50.938;7.286;2024-03-02T04:40:15;3.42;;;1.90;;
34497;SDS011;20744;50.938;7.286;2024-03-02T04:42:43;4.57;;;2.22;;
34497;SDS011;20744;50.938;7.286;2024-03-02T04:45:10;4.40;;;2.33;;
34497;SDS011;20744;50.938;7.286;2024-03-02T04:47:37;4.43;;;2.70;;
34497;SDS011;20744;50.938;7.286;2024-03-02T04:50:05;4.45;;;2.60;;
34497;SDS011;20744;50.938;7.286;2024-03-02T04:52:32;5.18;;;2.65;;
34497;SDS011;20744;50.938;7.286;2024-03-02T04:55:00;4.68;;;2.40;;
34497;SDS011;20744;50.938;7.286;2024-03-02T04:57:53;4.18;;;2.28;;
34497;SDS011;20744;50.938;7.286;2024-03-02T05:00:23;4.07;;;2.35;;
34497;SDS011;20744;50.938;7.286;2024-03-02T05:02:50;6.57;;;2.60;;
34497;SDS011;20744;50.938;7.286;2024-03-02T05:05:18;5.82;;;2.40;;
34497;SDS011;20744;50.938;7.286;2024-03-02T05:07:45;5.20;;;2.97;;
34497;SDS011;20744;50.938;7.286;2024-03-02T05:10:12;6.97;;;3.42;;
34497;SDS011;20744;50.938;7.286;2024-03-02T05:12:39;4.50;;;2.58;;
34497;SDS011;20744;50.938;7.286;2024-03-02T05:15:23;3.95;;;2.55;;
34497;SDS011;20744;50.938;7.286;2024-03-02T05:17:50;5.10;;;2.80;;
34497;SDS011;20744;50.938;7.286;2024-03-02T05:20:18;4.40;;;2.88;;
34497;SDS011;20744;50.938;7.286;2024-03-02T05:22:44;5.10;;;2.83;;
34497;SDS011;20744;50.938;7.286;2024-03-02T05:25:14;4.93;;;2.80;;
34497;SDS011;20744;50.938;7.286;2024-03-02T05:27:42;5.28;;;2.83;;
34497;SDS011;20744;50.938;7.286;2024-03-02T05:30:09;4.60;;;3.30;;
34497;SDS011;20744;50.938;7.286;2024-03-02T05:32:38;6.30;;;3.05;;
34497;SDS011;20744;50.938;7.286;2024-03-02T05:35:06;6.70;;;2.72;;
34497;SDS011;20744;50.938;7.286;2024-03-02T05:37:35;7.07;;;2.85;;
34497;SDS011;20744;50.938;7.286;2024-03-02T05:40:04;5.68;;;3.20;;
34497;SDS011;20744;50.938;7.286;2024-03-02T05:42:32;5.43;;;3.50;;
34497;SDS011;20744;50.938;7.286;2024-03-02T05:44:59;6.53;;;3.22;;
34497;SDS011;20744;50.938;7.286;2024-03-02T05:47:26;5.75;;;3.33;;
34497;SDS011;20744;50.938;7.286;2024-03-02T05:49:55;7.75;;;2.90;;
34497;SDS011;20744;50.938;7.286;2024-03-02T05:52:22;7.85;;;3.20;;
34497;SDS011;20744;50.938;7.286;2024-03-02T05:54:50;6.57;;;3.58;;
34497;SDS011;20744;50.938;7.286;2024-03-02T05:57:17;6.28;;;3.63;;
34497;SDS011;20744;50.938;7.286;2024-03-02T05:59:58;6.80;;;3.38;;
34497;SDS011;20744;50.938;7.286;2024-03-02T06:02:26;7.07;;;4.25;;
34497;SDS011;20744;50.938;7.286;2024-03-02T06:04:55;5.78;;;3.90;;
34497;SDS011;20744;50.938;7.286;2024-03-02T06:07:23;6.18;;;3.83;;
34497;SDS011;20744;50.938;7.286;2024-03-02T06:09:50;8.80;;;4.22;;
34497;SDS011;20744;50.938;7.286;2024-03-02T06:12:17;7.85;;;5.00;;
34497;SDS011;20744;50.938;7.286;2024-03-02T06:14:45;7.97;;;4.80;;
34497;SDS011;20744;50.938;7.286;2024-03-02T06:17:12;7.80;;;4.70;;
34497;SDS011;20744;50.938;7.286;2024-03-02T06:19:39;10.30;;;4.57;;
34497;SDS011;20744;50.938;7.286;2024-03-02T06:22:08;6.72;;;4.10;;
34497;SDS011;20744;50.938;7.286;2024-03-02T06:24:35;9.88;;;4.32;;
34497;SDS011;20744;50.938;7.286;2024-03-02T06:27:03;7.60;;;3.97;;
34497;SDS011;20744;50.938;7.286;2024-03-02T06:29:32;7.07;;;4.07;;
34497;SDS011;20744;50.938;7.286;2024-03-02T06:31:59;6.05;;;4.03;;
34497;SDS011;20744;50.938;7.286;2024-03-02T06:34:27;6.10;;;4.00;;
34497;SDS011;20744;50.938;7.286;2024-03-02T06:36:54;6.78;;;3.70;;
34497;SDS011;20744;50.938;7.286;2024-03-02T06:39:22;9.05;;;3.67;;
34497;SDS011;20744;50.938;7.286;2024-03-02T06:41:50;6.65;;;3.88;;
34497;SDS011;20744;50.938;7.286;2024-03-02T06:44:18;7.07;;;3.85;;
34497;SDS011;20744;50.938;7.286;2024-03-02T06:46:46;5.80;;;3.90;;
34497;SDS011;20744;50.938;7.286;2024-03-02T06:49:13;9.07;;;3.30;;
34497;SDS011;20744;50.938;7.286;2024-03-02T06:51:43;6.32;;;3.50;;
34497;SDS011;20744;50.938;7.286;2024-03-02T06:54:10;8.27;;;3.15;;
34497;SDS011;20744;50.938;7.286;2024-03-02T06:56:39;5.15;;;3.70;;
34497;SDS011;20744;50.938;7.286;2024-03-02T06:59:06;6.55;;;3.35;;
34497;SDS011;20744;50.938;7.286;2024-03-02T07:01:33;8.68;;;3.40;;
34497;SDS011;20744;50.938;7.286;2024-03-02T07:04:01;6.43;;;3.80;;
34497;SDS011;20744;50.938;7.286;2024-03-02T07:06:28;6.50;;;3.38;;
34497;SDS011;20744;50.938;7.286;2024-03-02T07:08:55;4.75;;;3.00;;
34497;SDS011;20744;50.938;7.286;2024-03-02T07:11:22;4.72;;;3.05;;
34497;SDS011;20744;50.938;7.286;2024-03-02T07:13:51;4.43;;;2.85;;
34497;SDS011;20744;50.938;7.286;2024-03-02T07:16:18;7.28;;;3.03;;
34497;SDS011;20744;50.938;7.286;2024-03-02T07:18:52;8.60;;;3.27;;
34497;SDS011;20744;50.938;7.286;2024-03-02T07:21:21;5.90;;;3.20;;
34497;SDS011;20744;50.938;7.286;2024-03-02T07:23:48;6.03;;;2.83;;
34497;SDS011;20744;50.938;7.286;2024-03-02T07:26:16;6.53;;;2.78;;
34497;SDS011;20744;50.938;7.286;2024-03-02T07:28:44;6.60;;;3.50;;
34497;SDS011;20744;50.938;7.286;2024-03-02T07:31:14;5.07;;;2.70;;
34497;SDS011;20744;50.938;7.286;2024-03-02T07:33:43;5.05;;;3.10;;
34497;SDS011;20744;50.938;7.286;2024-03-02T07:36:11;6.78;;;2.72;;
34497;SDS011;20744;50.938;7.286;2024-03-02T07:38:38;5.00;;;2.75;;
34497;SDS011;20744;50.938;7.286;2024-03-02T07:41:06;4.43;;;2.88;;
34497;SDS011;20744;50.938;7.286;2024-03-02T07:43:34;4.20;;;2.58;;
34497;SDS011;20744;50.938;7.286;2024-03-02T07:46:01;5.95;;;3.33;;
34497;SDS011;20744;50.938;7.286;2024-03-02T07:48:30;7.25;;;3.80;;
34497;SDS011;20744;50.938;7.286;2024-03-02T07:50:57;6.10;;;2.88;;
34497;SDS011;20744;50.938;7.286;2024-03-02T07:53:25;4.38;;;2.58;;
34497;SDS011;20744;50.938;7.286;2024-03-02T07:55:52;3.70;;;2.40;;
34497;SDS011;20744;50.938;7.286;2024-03-02T07:58:22;5.85;;;2.47;;
34497;SDS011;20744;50.938;7.286;2024-03-02T08:00:49;4.40;;;2.47;;
34497;SDS011;20744;50.938;7.286;2024-03-02T08:03:16;4.55;;;2.22;;
34497;SDS011;20744;50.938;7.286;2024-03-02T08:05:45;6.57;;;2.70;;
34497;SDS011;20744;50.938;7.286;2024-03-02T08:08:12;5.10;;;2.55;;
34497;SDS011;20744;50.938;7.286;2024-03-02T08:10:39;4.20;;;2.08;;
34497;SDS011;20744;50.938;7.286;2024-03-02T08:13:07;4.60;;;2.35;;
34497;SDS011;20744;50.938;7.286;2024-03-02T08:15:34;4.68;;;2.35;;
34497;SDS011;20744;50.938;7.286;2024-03-02T08:18:01;6.07;;;2.35;;
34497;SDS011;20744;50.938;7.286;2024-03-02T08:20:28;4.10;;;2.10;;
34497;SDS011;20744;50.938;7.286;2024-03-02T08:22:58;6.28;;;2.38;;
34497;SDS011;20744;50.938;7.286;2024-03-02T08:25:25;5.95;;;2.30;;
34497;SDS011;20744;50.938;7.286;2024-03-02T08:27:52;3.42;;;1.98;;
34497;SDS011;20744;50.938;7.286;2024-03-02T08:30:19;5.50;;;2.22;;
34497;SDS011;20744;50.938;7.286;2024-03-02T08:32:46;7.50;;;2.15;;
34497;SDS011;20744;50.938;7.286;2024-03-02T08:35:14;3.30;;;1.73;;
34497;SDS011;20744;50.938;7.286;2024-03-02T08:37:42;3.15;;;1.65;;
34497;SDS011;20744;50.938;7.286;2024-03-02T08:40:11;4.10;;;1.92;;
34497;SDS011;20744;50.938;7.286;2024-03-02T08:42:39;5.50;;;1.90;;
34497;SDS011;20744;50.938;7.286;2024-03-02T08:45:06;3.45;;;1.60;;
34497;SDS011;20744;50.938;7.286;2024-03-02T08:47:34;3.42;;;1.30;;
34497;SDS011;20744;50.938;7.286;2024-03-02T08:50:01;3.78;;;1.40;;
34497;SDS011;20744;50.938;7.286;2024-03-02T08:52:30;3.78;;;1.30;;
34497;SDS011;20744;50.938;7.286;2024-03-02T08:54:57;3.35;;;1.35;;
34497;SDS011;20744;50.938;7.286;2024-03-02T08:57:26;3.40;;;1.58;;
34497;SDS011;20744;50.938;7.286;2024-03-02T08:59:53;3.53;;;1.38;;
34497;SDS011;20744;50.938;7.286;2024-03-02T09:02:20;4.30;;;1.48;;
34497;SDS011;20744;50.938;7.286;2024-03-02T09:04:48;11.13;;;1.40;;
34497;SDS011;20744;50.938;7.286;2024-03-02T09:07:15;2.38;;;1.30;;
34497;SDS011;20744;50.938;7.286;2024-03-02T09:09:43;3.75;;;1.30;;
34497;SDS011;20744;50.938;7.286;2024-03-02T09:12:10;3.33;;;1.50;;
34497;SDS011;20744;50.938;7.286;2024-03-02T09:14:39;6.55;;;1.50;;
34497;SDS011;20744;50.938;7.286;2024-03-02T09:17:07;2.70;;;1.30;;
34497;SDS011;20744;50.938;7.286;2024-03-02T09:19:35;3.50;;;1.10;;
34497;SDS011;20744;50.938;7.286;2024-03-02T09:22:03;3.67;;;1.15;;
34497;SDS011;20744;50.938;7.286;2024-03-02T09:24:31;2.63;;;1.10;;
34497;SDS011;20744;50.938;7.286;2024-03-02T09:26:58;3.17;;;1.20;;
34497;SDS011;20744;50.938;7.286;2024-03-02T09:29:25;2.55;;;1.10;;
34497;SDS011;20744;50.938;7.286;2024-03-02T09:31:54;2.40;;;1.20;;
34497;SDS011;20744;50.938;7.286;2024-03-02T09:34:22;3.70;;;1.30;;
34497;SDS011;20744;50.938;7.286;2024-03-02T09:36:51;2.67;;;1.10;;
34497;SDS011;20744;50.938;7.286;2024-03-02T09:39:18;3.60;;;1.10;;
34497;SDS011;20744;50.938;7.286;2024-03-02T09:41:46;3.00;;;1.30;;
34497;SDS011;20744;50.938;7.286;2024-03-02T09:44:14;3.65;;;1.25;;
34497;SDS011;20744;50.938;7.286;2024-03-02T09:46:41;3.83;;;1.23;;
34497;SDS011;20744;50.938;7.286;2024-03-02T09:49:10;2.67;;;1.20;;
34497;SDS011;20744;50.938;7.286;2024-03-02T09:51:37;2.90;;;1.20;;
34497;SDS011;20744;50.938;7.286;2024-03-02T09:54:05;3.85;;;1.10;;
34497;SDS011;20744;50.938;7.286;2024-03-02T09:56:34;4.75;;;1.00;;
34497;SDS011;20744;50.938;7.286;2024-03-02T09:59:01;2.85;;;1.23;;
34497;SDS011;20744;50.938;7.286;2024-03-02T10:01:30;2.42;;;1.00;;
34497;SDS011;20744;50.938;7.286;2024-03-02T10:03:57;1.88;;;0.90;;
34497;SDS011;20744;50.938;7.286;2024-03-02T10:06:27;2.10;;;1.05;;
34497;SDS011;20744;50.938;7.286;2024-03-02T10:08:55;4.10;;;1.00;;
34497;SDS011;20744;50.938;7.286;2024-03-02T10:11:26;1.63;;;0.90;;
34497;SDS011;20744;50.938;7.286;2024-03-02T10:14:07;2.60;;;1.15;;
34497;SDS011;20744;50.938;7.286;2024-03-02T10:16:35;2.35;;;0.70;;
34497;SDS011;20744;50.938;7.286;2024-03-02T10:19:18;3.20;;;1.38;;
34497;SDS011;20744;50.938;7.286;2024-03-02T10:21:47;3.90;;;1.02;;
34497;SDS011;20744;50.938;7.286;2024-03-02T10:24:15;3.35;;;0.75;;
34497;SDS011;20744;50.938;7.286;2024-03-02T10:26:42;4.00;;;1.10;;
34497;SDS011;20744;50.938;7.286;2024-03-02T10:29:11;4.53;;;1.00;;
34497;SDS011;20744;50.938;7.286;2024-03-02T10:31:39;3.20;;;0.90;;
34497;SDS011;20744;50.938;7.286;2024-03-02T10:34:06;2.17;;;1.00;;
34497;SDS011;20744;50.938;7.286;2024-03-02T10:36:34;4.25;;;1.10;;
34497;SDS011;20744;50.938;7.286;2024-03-02T10:39:04;2.65;;;1.10;;
34497;SDS011;20744;50.938;7.286;2024-03-02T10:41:32;5.20;;;0.95;;
34497;SDS011;20744;50.938;7.286;2024-03-02T10:44:01;3.33;;;0.80;;
34497;SDS011;20744;50.938;7.286;2024-03-02T10:46:29;2.05;;;1.00;;
34497;SDS011;20744;50.938;7.286;2024-03-02T10:48:58;2.97;;;1.08;;
34497;SDS011;20744;50.938;7.286;2024-03-02T10:51:26;2.33;;;0.90;;
34497;SDS011;20744;50.938;7.286;2024-03-02T10:53:56;1.58;;;0.63;;
34497;SDS011;20744;50.938;7.286;2024-03-02T10:56:27;3.38;;;0.70;;
34497;SDS011;20744;50.938;7.286;2024-03-02T10:58:57;1.88;;;0.77;;
34497;SDS011;20744;50.938;7.286;2024-03-02T11:01:29;3.47;;;1.00;;
34497;SDS011;20744;50.938;7.286;2024-03-02T11:03:56;1.08;;;0.50;;
34497;SDS011;20744;50.938;7.286;2024-03-02T11:06:24;1.58;;;0.60;;
34497;SDS011;20744;50.938;7.286;2024-03-02T11:08:53;2.83;;;0.60;;
34497;SDS011;20744;50.938;7.286;2024-03-02T11:11:25;1.48;;;0.50;;
34497;SDS011;20744;50.938;7.286;2024-03-02T11:13:56;2.85;;;0.70;;
34497;SDS011;20744;50.938;7.286;2024-03-02T11:16:27;1.80;;;0.70;;
34497;SDS011;20744;50.938;7.286;2024-03-02T11:19:00;2.33;;;0.80;;
34497;SDS011;20744;50.938;7.286;2024-03-02T11:21:28;1.70;;;0.52;;
34497;SDS011;20744;50.938;7.286;2024-03-02T11:23:58;1.23;;;0.40;;
34497;SDS011;20744;50.938;7.286;2024-03-02T11:26:27;1.83;;;0.70;;
34497;SDS011;20744;50.938;7.286;2024-03-02T11:28:54;2.03;;;0.82;;
34497;SDS011;20744;50.938;7.286;2024-03-02T11:31:38;2.00;;;0.73;;
34497;SDS011;20744;50.938;7.286;2024-03-02T11:34:28;1.70;;;0.57;;
34497;SDS011;20744;50.938;7.286;2024-03-02T11:36:56;2.55;;;0.40;;
34497;SDS011;20744;50.938;7.286;2024-03-02T11:39:24;1.40;;;0.35;;
34497;SDS011;20744;50.938;7.286;2024-03-02T11:41:51;1.38;;;0.45;;
34497;SDS011;20744;50.938;7.286;2024-03-02T11:44:19;1.17;;;0.55;;
34497;SDS011;20744;50.938;7.286;2024-03-02T11:46:48;2.20;;;0.60;;
34497;SDS011;20744;50.938;7.286;2024-03-02T11:49:20;1.27;;;0.60;;
34497;SDS011;20744;50.938;7.286;2024-03-02T11:52:03;1.48;;;0.50;;
34497;SDS011;20744;50.938;7.286;2024-03-02T11:54:32;1.27;;;0.60;;
34497;SDS011;20744;50.938;7.286;2024-03-02T11:57:01;1.25;;;0.50;;
34497;SDS011;20744;50.938;7.286;2024-03-02T11:59:28;0.90;;;0.50;;
34497;SDS011;20744;50.938;7.286;2024-03-02T12:01:57;1.50;;;0.70;;
34497;SDS011;20744;50.938;7.286;2024-03-02T12:04:24;1.90;;;0.70;;
34497;SDS011;20744;50.938;7.286;2024-03-02T12:06:54;1.60;;;0.60;;
34497;SDS011;20744;50.938;7.286;2024-03-02T12:09:21;1.30;;;0.70;;
34497;SDS011;20744;50.938;7.286;2024-03-02T12:12:00;1.95;;;0.60;;
34497;SDS011;20744;50.938;7.286;2024-03-02T12:14:28;1.75;;;0.68;;
34497;SDS011;20744;50.938;7.286;2024-03-02T12:16:57;1.00;;;0.43;;
34497;SDS011;20744;50.938;7.286;2024-03-02T12:19:25;2.35;;;0.70;;
34497;SDS011;20744;50.938;7.286;2024-03-02T12:21:52;1.65;;;0.73;;
34497;SDS011;20744;50.938;7.286;2024-03-02T12:24:20;2.03;;;0.50;;
34497;SDS011;20744;50.938;7.286;2024-03-02T12:26:48;2.50;;;0.60;;
34497;SDS011;20744;50.938;7.286;2024-03-02T12:29:16;0.70;;;0.57;;
34497;SDS011;20744;50.938;7.286;2024-03-02T12:31:43;0.90;;;0.50;;
34497;SDS011;20744;50.938;7.286;2024-03-02T12:34:12;2.85;;;0.60;;
34497;SDS011;20744;50.938;7.286;2024-03-02T12:36:40;3.83;;;0.52;;
34497;SDS011;20744;50.938;7.286;2024-03-02T12:39:08;1.55;;;0.60;;
34497;SDS011;20744;50.938;7.286;2024-03-02T12:41:35;2.55;;;0.63;;
34497;SDS011;20744;50.938;7.286;2024-03-02T12:44:03;0.90;;;0.47;;
34497;SDS011;20744;50.938;7.286;2024-03-02T12:46:31;1.23;;;0.50;;
34497;SDS011;20744;50.938;7.286;2024-03-02T12:48:58;1.25;;;0.60;;
34497;SDS011;20744;50.938;7.286;2024-03-02T12:51:27;2.35;;;0.77;;
34497;SDS011;20744;50.938;7.286;2024-03-02T12:53:55;1.27;;;0.60;;
34497;SDS011;20744;50.938;7.286;2024-03-02T12:56:22;0.95;;;0.60;;
34497;SDS011;20744;50.938;7.286;2024-03-02T12:58:52;2.55;;;0.65;;
34497;SDS011;20744;50.938;7.286;2024-03-02T13:01:20;1.67;;;0.52;;
34497;SDS011;20744;50.938;7.286;2024-03-02T13:03:48;1.38;;;0.70;;
34497;SDS011;20744;50.938;7.286;2024-03-02T13:06:16;1.40;;;0.50;;
34497;SDS011;20744;50.938;7.286;2024-03-02T13:08:45;1.48;;;0.70;;
34497;SDS011;20744;50.938;7.286;2024-03-02T13:11:13;1.65;;;0.60;;
34497;SDS011;20744;50.938;7.286;2024-03-02T13:13:40;1.83;;;0.70;;
34497;SDS011;20744;50.938;7.286;2024-03-02T13:16:08;1.52;;;0.60;;
34497;SDS011;20744;50.938;7.286;2024-03-02T13:18:36;2.05;;;0.47;;
34497;SDS011;20744;50.938;7.286;2024-03-02T13:21:03;2.58;;;0.60;;
34497;SDS011;20744;50.938;7.286;2024-03-02T13:23:30;0.85;;;0.40;;
34497;SDS011;20744;50.938;7.286;2024-03-02T13:25:59;1.35;;;0.60;;
34497;SDS011;20744;50.938;7.286;2024-03-02T13:28:27;1.67;;;0.60;;
34497;SDS011;20744;50.938;7.286;2024-03-02T13:30:55;1.63;;;0.60;;
34497;SDS011;20744;50.938;7.286;2024-03-02T13:33:23;0.98;;;0.50;;
34497;SDS011;20744;50.938;7.286;2024-03-02T13:35:50;2.70;;;0.50;;
34497;SDS011;20744;50.938;7.286;2024-03-02T13:38:18;2.25;;;0.50;;
34497;SDS011;20744;50.938;7.286;2024-03-02T13:40:46;1.40;;;0.68;;
34497;SDS011;20744;50.938;7.286;2024-03-02T13:43:14;1.55;;;0.57;;
34497;SDS011;20744;50.938;7.286;2024-03-02T13:45:42;1.50;;;0.57;;
34497;SDS011;20744;50.938;7.286;2024-03-02T13:48:09;1.55;;;0.63;;
34497;SDS011;20744;50.938;7.286;2024-03-02T13:50:36;1.00;;;0.60;;
34497;SDS011;20744;50.938;7.286;2024-03-02T13:53:03;0.88;;;0.60;;
34497;SDS011;20744;50.938;7.286;2024-03-02T13:55:32;4.47;;;1.30;;
34497;SDS011;20744;50.938;7.286;2024-03-02T13:57:59;1.88;;;0.70;;
34497;SDS011;20744;50.938;7.286;2024-03-02T14:00:28;1.42;;;0.73;;
34497;SDS011;20744;50.938;7.286;2024-03-02T14:02:55;3.63;;;0.70;;
34497;SDS011;20744;50.938;7.286;2024-03-02T14:05:25;1.00;;;0.52;;
34497;SDS011;20744;50.938;7.286;2024-03-02T14:07:52;1.92;;;0.80;;
34497;SDS011;20744;50.938;7.286;2024-03-02T14:10:19;1.15;;;0.60;;
34497;SDS011;20744;50.938;7.286;2024-03-02T14:12:48;1.98;;;0.80;;
34497;SDS011;20744;50.938;7.286;2024-03-02T14:15:15;2.10;;;0.70;;
34497;SDS011;20744;50.938;7.286;2024-03-02T14:17:44;1.65;;;0.70;;
34497;SDS011;20744;50.938;7.286;2024-03-02T14:20:11;0.93;;;0.40;;
34497;SDS011;20744;50.938;7.286;2024-03-02T14:22:39;1.00;;;0.55;;
34497;SDS011;20744;50.938;7.286;2024-03-02T14:25:06;0.65;;;0.50;;
34497;SDS011;20744;50.938;7.286;2024-03-02T14:27:33;1.77;;;0.60;;
34497;SDS011;20744;50.938;7.286;2024-03-02T14:30:01;1.48;;;0.63;;
34497;SDS011;20744;50.938;7.286;2024-03-02T14:32:30;1.48;;;0.70;;
34497;SDS011;20744;50.938;7.286;2024-03-02T14:34:59;0.90;;;0.50;;
34497;SDS011;20744;50.938;7.286;2024-03-02T14:37:26;1.23;;;0.50;;
34497;SDS011;20744;50.938;7.286;2024-03-02T14:39:53;1.70;;;0.50;;
34497;SDS011;20744;50.938;7.286;2024-03-02T14:42:21;0.88;;;0.50;;
34497;SDS011;20744;50.938;7.286;2024-03-02T14:44:49;1.33;;;0.70;;
34497;SDS011;20744;50.938;7.286;2024-03-02T14:47:16;0.60;;;0.40;;
34497;SDS011;20744;50.938;7.286;2024-03-02T14:49:43;0.95;;;0.50;;
34497;SDS011;20744;50.938;7.286;2024-03-02T14:52:12;1.15;;;0.30;;
34497;SDS011;20744;50.938;7.286;2024-03-02T14:54:39;0.88;;;0.38;;